sensor_id;sensor_type;location;lat;lon;timestamp;pressure;altitude;pressure_sealevel;temperature;humidity
35649;BME280;21768;48.562;13.414;2023-05-02T00:01:37;97301.97;;;14.58;67.07
35649;BME280;21768;48.562;13.414;2023-05-02T00:04:03;97301.28;;;14.62;67.05
35649;BME280;21768;48.562;13.414;2023-05-02T00:06:29;97298.56;;;14.58;66.96
35649;BME280;21768;48.562;13.414;2023-05-02T00:08:55;97297.75;;;14.59;67.18
35649;BME280;21768;48.562;13.414;2023-05-02T00:11:21;97292.72;;;14.60;66.94
35649;BME280;21768;48.562;13.414;2023-05-02T00:13:48;97289.31;;;14.60;67.09
35649;BME280;21768;48.562;13.414;2023-05-02T00:16:14;97288.50;;;14.61;67.18
35649;BME280;21768;48.562;13.414;2023-05-02T00:18:39;97292.88;;;14.63;67.21
35649;BME280;21768;48.562;13.414;2023-05-02T00:21:04;97297.00;;;14.61;67.38
35649;BME280;21768;48.562;13.414;2023-05-02T00:23:30;97296.13;;;14.61;67.44
35649;BME280;21768;48.562;13.414;2023-05-02T00:25:55;97295.22;;;14.59;67.44
35649;BME280;21768;48.562;13.414;2023-05-02T00:28:21;97296.09;;;14.59;67.24
35649;BME280;21768;48.562;13.414;2023-05-02T00:30:46;97296.44;;;14.49;67.51
35649;BME280;21768;48.562;13.414;2023-05-02T00:33:12;97292.00;;;14.45;67.71
35649;BME280;21768;48.562;13.414;2023-05-02T00:35:39;97290.34;;;14.46;67.88
35649;BME280;21768;48.562;13.414;2023-05-02T00:38:04;97294.63;;;14.47;67.86
35649;BME280;21768;48.562;13.414;2023-05-02T00:40:30;97290.56;;;14.50;67.90
35649;BME280;21768;48.562;13.414;2023-05-02T00:42:56;97285.47;;;14.50;67.74
35649;BME280;21768;48.562;13.414;2023-05-02T00:45:21;97283.59;;;14.46;68.10
35649;BME280;21768;48.562;13.414;2023-05-02T00:47:48;97286.13;;;14.46;68.15
35649;BME280;21768;48.562;13.414;2023-05-02T00:50:14;97282.88;;;14.49;68.18
35649;BME280;21768;48.562;13.414;2023-05-02T00:52:39;97289.31;;;14.42;68.19
35649;BME280;21768;48.562;13.414;2023-05-02T00:55:06;97294.38;;;14.42;68.20
35649;BME280;21768;48.562;13.414;2023-05-02T00:57:32;97282.91;;;14.33;68.45
35649;BME280;21768;48.562;13.414;2023-05-02T00:59:58;97294.88;;;14.35;68.57
35649;BME280;21768;48.562;13.414;2023-05-02T01:02:33;97290.38;;;14.29;68.50
35649;BME280;21768;48.562;13.414;2023-05-02T01:05:10;97291.66;;;14.21;68.74
35649;BME280;21768;48.562;13.414;2023-05-02T01:10:47;97299.66;;;14.29;68.59
35649;BME280;21768;48.562;13.414;2023-05-02T01:15:43;97292.03;;;14.29;68.70
35649;BME280;21768;48.562;13.414;2023-05-02T01:18:11;97294.28;;;14.23;68.78
35649;BME280;21768;48.562;13.414;2023-05-02T01:20:40;97301.97;;;14.24;68.78
35649;BME280;21768;48.562;13.414;2023-05-02T01:23:31;97296.31;;;14.30;68.75
35649;BME280;21768;48.562;13.414;2023-05-02T01:28:57;97296.00;;;14.24;68.78
35649;BME280;21768;48.562;13.414;2023-05-02T01:31:32;97297.44;;;14.19;68.98
35649;BME280;21768;48.562;13.414;2023-05-02T01:33:59;97310.94;;;14.18;69.04
35649;BME280;21768;48.562;13.414;2023-05-02T01:36:28;97302.53;;;14.19;69.19
35649;BME280;21768;48.562;13.414;2023-05-02T01:38:56;97309.34;;;14.20;69.02
35649;BME280;21768;48.562;13.414;2023-05-02T01:41:24;97311.88;;;14.20;69.17
35649;BME280;21768;48.562;13.414;2023-05-02T01:43:50;97307.59;;;14.19;69.21
35649;BME280;21768;48.562;13.414;2023-05-02T01:46:19;97319.19;;;14.14;69.40
35649;BME280;21768;48.562;13.414;2023-05-02T01:48:46;97318.75;;;14.05;69.66
35649;BME280;21768;48.562;13.414;2023-05-02T01:51:14;97311.78;;;14.01;69.84
35649;BME280;21768;48.562;13.414;2023-05-02T01:53:43;97316.06;;;14.02;69.77
35649;BME280;21768;48.562;13.414;2023-05-02T01:56:10;97316.84;;;14.01;69.91
35649;BME280;21768;48.562;13.414;2023-05-02T01:58:37;97316.69;;;13.98;69.88
35649;BME280;21768;48.562;13.414;2023-05-02T02:01:04;97314.88;;;13.95;70.01
35649;BME280;21768;48.562;13.414;2023-05-02T02:03:30;97315.75;;;13.95;69.90
35649;BME280;21768;48.562;13.414;2023-05-02T02:05:57;97316.84;;;14.01;69.91
35649;BME280;21768;48.562;13.414;2023-05-02T02:08:24;97321.38;;;14.06;69.74
35649;BME280;21768;48.562;13.414;2023-05-02T02:10:56;97321.63;;;14.12;69.59
35649;BME280;21768;48.562;13.414;2023-05-02T02:13:38;97318.38;;;14.15;69.47
35649;BME280;21768;48.562;13.414;2023-05-02T02:16:04;97325.13;;;14.14;69.24
35649;BME280;21768;48.562;13.414;2023-05-02T02:18:35;97318.91;;;14.08;69.28
35649;BME280;21768;48.562;13.414;2023-05-02T02:21:05;97326.63;;;14.11;69.22
35649;BME280;21768;48.562;13.414;2023-05-02T02:23:32;97326.88;;;14.15;69.13
35649;BME280;21768;48.562;13.414;2023-05-02T02:26:01;97321.56;;;14.11;69.00
35649;BME280;21768;48.562;13.414;2023-05-02T02:28:27;97326.59;;;14.09;69.06
35649;BME280;21768;48.562;13.414;2023-05-02T02:30:52;97322.38;;;14.10;68.95
35649;BME280;21768;48.562;13.414;2023-05-02T02:33:18;97321.56;;;14.11;68.93
35649;BME280;21768;48.562;13.414;2023-05-02T02:35:49;97328.38;;;14.12;68.78
35649;BME280;21768;48.562;13.414;2023-05-02T02:41:13;97329.69;;;14.04;68.95
35649;BME280;21768;48.562;13.414;2023-05-02T02:46:19;97331.19;;;14.00;69.31
35649;BME280;21768;48.562;13.414;2023-05-02T02:49:05;97338.25;;;13.89;69.33
35649;BME280;21768;48.562;13.414;2023-05-02T02:51:42;97338.09;;;13.86;69.34
35649;BME280;21768;48.562;13.414;2023-05-02T02:56:40;97345.69;;;13.86;69.40
35649;BME280;21768;48.562;13.414;2023-05-02T02:59:15;97349.97;;;13.87;69.35
35649;BME280;21768;48.562;13.414;2023-05-02T03:01:47;97350.72;;;13.85;69.41
35649;BME280;21768;48.562;13.414;2023-05-02T03:04:16;97354.91;;;13.84;69.50
35649;BME280;21768;48.562;13.414;2023-05-02T03:06:43;97358.16;;;13.82;69.37
35649;BME280;21768;48.562;13.414;2023-05-02T03:09:15;97354.75;;;13.81;69.42
35649;BME280;21768;48.562;13.414;2023-05-02T03:11:44;97356.34;;;13.79;69.48
35649;BME280;21768;48.562;13.414;2023-05-02T03:14:12;97368.22;;;13.80;69.46
35649;BME280;21768;48.562;13.414;2023-05-02T03:16:40;97367.34;;;13.80;69.72
35649;BME280;21768;48.562;13.414;2023-05-02T03:19:06;97364.50;;;13.74;69.56
35649;BME280;21768;48.562;13.414;2023-05-02T03:21:32;97363.53;;;13.72;69.95
35649;BME280;21768;48.562;13.414;2023-05-02T03:24:02;97362.03;;;13.75;69.63
35649;BME280;21768;48.562;13.414;2023-05-02T03:26:28;97373.13;;;13.77;69.44
35649;BME280;21768;48.562;13.414;2023-05-02T03:28:54;97378.06;;;13.74;69.54
35649;BME280;21768;48.562;13.414;2023-05-02T03:31:20;97371.31;;;13.75;69.64
35649;BME280;21768;48.562;13.414;2023-05-02T03:33:47;97370.28;;;13.71;69.60
35649;BME280;21768;48.562;13.414;2023-05-02T03:36:12;97372.66;;;13.68;69.72
35649;BME280;21768;48.562;13.414;2023-05-02T03:38:38;97372.66;;;13.68;69.83
35649;BME280;21768;48.562;13.414;2023-05-02T03:41:03;97387.53;;;13.62;69.87
35649;BME280;21768;48.562;13.414;2023-05-02T03:43:30;97386.53;;;13.58;69.80
35649;BME280;21768;48.562;13.414;2023-05-02T03:45:55;97383.34;;;13.62;69.99
35649;BME280;21768;48.562;13.414;2023-05-02T03:48:21;97384.22;;;13.63;69.89
35649;BME280;21768;48.562;13.414;2023-05-02T03:50:46;97385.94;;;13.64;69.70
35649;BME280;21768;48.562;13.414;2023-05-02T03:53:12;97391.59;;;13.58;69.89
35649;BME280;21768;48.562;13.414;2023-05-02T03:55:41;97391.81;;;13.63;70.02
35649;BME280;21768;48.562;13.414;2023-05-02T03:58:08;97402.91;;;13.65;69.87
35649;BME280;21768;48.562;13.414;2023-05-02T04:00:35;97402.91;;;13.65;69.78
35649;BME280;21768;48.562;13.414;2023-05-02T04:03:01;97402.28;;;13.69;69.82
35649;BME280;21768;48.562;13.414;2023-05-02T04:05:26;97411.81;;;13.73;69.84
35649;BME280;21768;48.562;13.414;2023-05-02T04:07:51;97410.13;;;13.74;69.84
35649;BME280;21768;48.562;13.414;2023-05-02T04:10:17;97419.66;;;13.78;69.85
35649;BME280;21768;48.562;13.414;2023-05-02T04:12:43;97418.16;;;13.81;69.99
35649;BME280;21768;48.562;13.414;2023-05-02T04:15:09;97419.13;;;13.83;69.88
35649;BME280;21768;48.562;13.414;2023-05-02T04:17:35;97422.59;;;13.85;69.85
35649;BME280;21768;48.562;13.414;2023-05-02T04:20:00;97426.84;;;13.86;69.89
35649;BME280;21768;48.562;13.414;2023-05-02T04:22:26;97432.09;;;13.89;69.74
35649;BME280;21768;48.562;13.414;2023-05-02T04:24:52;97432.09;;;13.89;69.80
35649;BME280;21768;48.562;13.414;2023-05-02T04:27:17;97423.84;;;13.93;69.57
35649;BME280;21768;48.562;13.414;2023-05-02T04:29:43;97432.34;;;13.94;69.33
35649;BME280;21768;48.562;13.414;2023-05-02T04:32:08;97432.88;;;13.88;69.47
35649;BME280;21768;48.562;13.414;2023-05-02T04:34:34;97442.31;;;13.91;69.59
35649;BME280;21768;48.562;13.414;2023-05-02T04:37:00;97435.41;;;13.88;69.43
35649;BME280;21768;48.562;13.414;2023-05-02T04:39:25;97439.50;;;13.85;69.31
35649;BME280;21768;48.562;13.414;2023-05-02T04:41:51;97446.06;;;13.81;69.54
35649;BME280;21768;48.562;13.414;2023-05-02T04:44:16;97448.50;;;13.80;69.79
35649;BME280;21768;48.562;13.414;2023-05-02T04:46:42;97452.72;;;13.79;69.97
35649;BME280;21768;48.562;13.414;2023-05-02T04:49:07;97457.69;;;13.78;69.60
35649;BME280;21768;48.562;13.414;2023-05-02T04:51:34;97466.34;;;13.81;69.71
35649;BME280;21768;48.562;13.414;2023-05-02T04:53:59;97464.75;;;13.83;69.51
35649;BME280;21768;48.562;13.414;2023-05-02T04:56:24;97464.91;;;13.86;69.50
35649;BME280;21768;48.562;13.414;2023-05-02T04:58:50;97478.00;;;13.94;69.52
35649;BME280;21768;48.562;13.414;2023-05-02T05:01:15;97467.31;;;14.00;69.21
35649;BME280;21768;48.562;13.414;2023-05-02T05:03:41;97476.50;;;13.98;68.96
35649;BME280;21768;48.562;13.414;2023-05-02T05:06:07;97484.91;;;13.96;68.91
35649;BME280;21768;48.562;13.414;2023-05-02T05:08:32;97487.59;;;14.00;69.05
35649;BME280;21768;48.562;13.414;2023-05-02T05:10:57;97484.44;;;14.04;68.82
35649;BME280;21768;48.562;13.414;2023-05-02T05:13:23;97492.69;;;14.00;68.53
35649;BME280;21768;48.562;13.414;2023-05-02T05:15:48;97492.88;;;13.88;68.58
35649;BME280;21768;48.562;13.414;2023-05-02T05:18:13;97491.13;;;13.87;69.07
35649;BME280;21768;48.562;13.414;2023-05-02T05:20:39;97499.00;;;13.91;68.59
35649;BME280;21768;48.562;13.414;2023-05-02T05:23:04;97506.16;;;13.99;68.74
35649;BME280;21768;48.562;13.414;2023-05-02T05:25:30;97504.81;;;14.05;68.45
35649;BME280;21768;48.562;13.414;2023-05-02T05:27:55;97506.78;;;14.11;68.16
35649;BME280;21768;48.562;13.414;2023-05-02T05:30:21;97504.91;;;14.07;67.92
35649;BME280;21768;48.562;13.414;2023-05-02T05:32:46;97508.06;;;14.03;67.86
35649;BME280;21768;48.562;13.414;2023-05-02T05:35:12;97512.19;;;14.01;68.25
35649;BME280;21768;48.562;13.414;2023-05-02T05:37:38;97509.97;;;14.07;67.94
35649;BME280;21768;48.562;13.414;2023-05-02T05:40:07;97522.50;;;14.04;67.85
35649;BME280;21768;48.562;13.414;2023-05-02T05:42:32;97510.44;;;14.00;68.11
35649;BME280;21768;48.562;13.414;2023-05-02T05:44:58;97521.72;;;14.05;67.99
35649;BME280;21768;48.562;13.414;2023-05-02T05:47:23;97517.81;;;14.11;67.67
35649;BME280;21768;48.562;13.414;2023-05-02T05:49:55;97514.56;;;14.14;67.44
35649;BME280;21768;48.562;13.414;2023-05-02T05:52:21;97519.81;;;14.17;67.56
35649;BME280;21768;48.562;13.414;2023-05-02T05:54:47;97514.88;;;14.20;67.43
35649;BME280;21768;48.562;13.414;2023-05-02T05:57:12;97525.13;;;14.21;67.00
35649;BME280;21768;48.562;13.414;2023-05-02T05:59:38;97528.25;;;14.32;67.02
35649;BME280;21768;48.562;13.414;2023-05-02T06:02:03;97528.41;;;14.35;66.54
35649;BME280;21768;48.562;13.414;2023-05-02T06:04:29;97535.56;;;14.42;66.86
35649;BME280;21768;48.562;13.414;2023-05-02T06:06:55;97537.63;;;14.49;66.71
35649;BME280;21768;48.562;13.414;2023-05-02T06:09:20;97531.28;;;14.57;66.50
35649;BME280;21768;48.562;13.414;2023-05-02T06:11:46;97537.22;;;14.58;65.87
35649;BME280;21768;48.562;13.414;2023-05-02T06:14:11;97549.34;;;14.63;65.72
35649;BME280;21768;48.562;13.414;2023-05-02T06:16:36;97537.84;;;14.70;65.60
35649;BME280;21768;48.562;13.414;2023-05-02T06:19:02;97541.66;;;14.78;65.46
35649;BME280;21768;48.562;13.414;2023-05-02T06:21:27;97550.50;;;14.86;65.12
35649;BME280;21768;48.562;13.414;2023-05-02T06:23:52;97556.94;;;14.96;64.94
35649;BME280;21768;48.562;13.414;2023-05-02T06:26:18;97558.84;;;15.00;64.11
35649;BME280;21768;48.562;13.414;2023-05-02T06:28:43;97572.97;;;14.95;64.53
35649;BME280;21768;48.562;13.414;2023-05-02T06:31:08;97562.19;;;14.99;64.23
35649;BME280;21768;48.562;13.414;2023-05-02T06:33:35;97569.00;;;15.00;64.35
35649;BME280;21768;48.562;13.414;2023-05-02T06:36:01;97570.13;;;15.05;63.59
35649;BME280;21768;48.562;13.414;2023-05-02T06:38:27;97575.28;;;15.07;63.53
35649;BME280;21768;48.562;13.414;2023-05-02T06:40:52;97575.03;;;15.02;63.65
35649;BME280;21768;48.562;13.414;2023-05-02T06:43:18;97580.28;;;15.05;63.74
35649;BME280;21768;48.562;13.414;2023-05-02T06:45:44;97574.84;;;15.15;63.50
35649;BME280;21768;48.562;13.414;2023-05-02T06:48:10;97585.34;;;15.21;63.48
35649;BME280;21768;48.562;13.414;2023-05-02T06:50:36;97578.97;;;15.29;63.18
35649;BME280;21768;48.562;13.414;2023-05-02T06:53:03;97588.69;;;15.38;62.75
35649;BME280;21768;48.562;13.414;2023-05-02T06:55:28;97587.19;;;15.42;62.46
35649;BME280;21768;48.562;13.414;2023-05-02T06:57:54;97585.59;;;15.44;61.84
35649;BME280;21768;48.562;13.414;2023-05-02T07:00:19;97596.13;;;15.34;61.33
35649;BME280;21768;48.562;13.414;2023-05-02T07:02:46;97596.59;;;15.26;61.31
35649;BME280;21768;48.562;13.414;2023-05-02T07:05:12;97590.56;;;15.24;61.77
35649;BME280;21768;48.562;13.414;2023-05-02T07:07:39;97594.94;;;15.27;62.40
35649;BME280;21768;48.562;13.414;2023-05-02T07:10:05;97595.53;;;15.39;61.97
35649;BME280;21768;48.562;13.414;2023-05-02T07:12:31;97587.41;;;15.46;61.29
35649;BME280;21768;48.562;13.414;2023-05-02T07:14:56;97588.59;;;15.53;60.13
35649;BME280;21768;48.562;13.414;2023-05-02T07:17:22;97590.03;;;15.48;60.62
35649;BME280;21768;48.562;13.414;2023-05-02T07:19:47;97583.34;;;15.50;61.10
35649;BME280;21768;48.562;13.414;2023-05-02T07:22:12;97590.94;;;15.66;60.29
35649;BME280;21768;48.562;13.414;2023-05-02T07:24:42;97592.56;;;15.82;59.88
35649;BME280;21768;48.562;13.414;2023-05-02T07:27:11;97593.34;;;15.98;60.34
35649;BME280;21768;48.562;13.414;2023-05-02T07:29:37;97596.38;;;16.09;59.97
35649;BME280;21768;48.562;13.414;2023-05-02T07:32:03;97591.78;;;16.20;59.66
35649;BME280;21768;48.562;13.414;2023-05-02T07:34:29;97587.78;;;16.25;59.11
35649;BME280;21768;48.562;13.414;2023-05-02T07:36:54;97590.56;;;16.29;58.19
35649;BME280;21768;48.562;13.414;2023-05-02T07:39:20;97585.75;;;16.18;58.19
35649;BME280;21768;48.562;13.414;2023-05-02T07:41:46;97588.75;;;16.09;59.11
35649;BME280;21768;48.562;13.414;2023-05-02T07:44:11;97588.44;;;16.21;59.16
35649;BME280;21768;48.562;13.414;2023-05-02T07:46:36;97588.88;;;16.30;59.29
35649;BME280;21768;48.562;13.414;2023-05-02T07:49:02;97585.53;;;16.31;58.23
35649;BME280;21768;48.562;13.414;2023-05-02T07:51:27;97589.94;;;16.35;57.99
35649;BME280;21768;48.562;13.414;2023-05-02T07:53:53;97593.84;;;16.27;58.27
35649;BME280;21768;48.562;13.414;2023-05-02T07:56:22;97592.47;;;16.35;58.47
35649;BME280;21768;48.562;13.414;2023-05-02T07:58:48;97595.66;;;16.49;57.84
35649;BME280;21768;48.562;13.414;2023-05-02T08:01:15;97597.88;;;16.60;57.24
35649;BME280;21768;48.562;13.414;2023-05-02T08:03:41;97599.63;;;16.61;57.26
35649;BME280;21768;48.562;13.414;2023-05-02T08:06:06;97604.09;;;16.65;57.17
35649;BME280;21768;48.562;13.414;2023-05-02T08:08:33;97603.78;;;16.59;56.59
35649;BME280;21768;48.562;13.414;2023-05-02T08:11:02;97608.13;;;16.62;56.63
35649;BME280;21768;48.562;13.414;2023-05-02T08:13:27;97606.22;;;16.56;56.43
35649;BME280;21768;48.562;13.414;2023-05-02T08:15:53;97608.06;;;16.60;57.02
35649;BME280;21768;48.562;13.414;2023-05-02T08:18:26;97614.50;;;16.70;56.32
35649;BME280;21768;48.562;13.414;2023-05-02T08:20:52;97612.09;;;16.73;57.44
35649;BME280;21768;48.562;13.414;2023-05-02T08:23:17;97609.75;;;16.78;56.93
35649;BME280;21768;48.562;13.414;2023-05-02T08:25:43;97609.25;;;16.86;56.64
35649;BME280;21768;48.562;13.414;2023-05-02T08:28:08;97602.94;;;16.97;57.50
35649;BME280;21768;48.562;13.414;2023-05-02T08:30:34;97604.34;;;17.10;56.60
35649;BME280;21768;48.562;13.414;2023-05-02T08:32:59;97607.91;;;17.14;56.11
35649;BME280;21768;48.562;13.414;2023-05-02T08:35:24;97615.59;;;17.15;56.13
35649;BME280;21768;48.562;13.414;2023-05-02T08:37:50;97611.31;;;17.14;56.15
35649;BME280;21768;48.562;13.414;2023-05-02T08:40:16;97613.72;;;17.11;54.32
35649;BME280;21768;48.562;13.414;2023-05-02T08:42:42;97612.47;;;17.02;54.44
35649;BME280;21768;48.562;13.414;2023-05-02T08:45:10;97611.47;;;16.98;56.02
35649;BME280;21768;48.562;13.414;2023-05-02T08:47:37;97622.00;;;17.06;55.42
35649;BME280;21768;48.562;13.414;2023-05-02T08:50:05;97613.66;;;17.10;55.22
35649;BME280;21768;48.562;13.414;2023-05-02T08:52:31;97621.91;;;17.23;55.10
35649;BME280;21768;48.562;13.414;2023-05-02T08:54:57;97627.53;;;17.35;55.02
35649;BME280;21768;48.562;13.414;2023-05-02T08:57:25;97626.91;;;17.41;55.31
35649;BME280;21768;48.562;13.414;2023-05-02T08:59:52;97635.03;;;17.52;54.10
35649;BME280;21768;48.562;13.414;2023-05-02T09:05:05;97636.91;;;17.37;54.86
35649;BME280;21768;48.562;13.414;2023-05-02T09:07:43;97646.31;;;17.38;53.44
35649;BME280;21768;48.562;13.414;2023-05-02T09:10:10;97648.50;;;17.28;54.75
35649;BME280;21768;48.562;13.414;2023-05-02T09:12:35;97647.78;;;17.32;53.84
35649;BME280;21768;48.562;13.414;2023-05-02T09:15:14;97657.84;;;17.49;54.40
35649;BME280;21768;48.562;13.414;2023-05-02T09:17:42;97652.25;;;17.57;54.46
35649;BME280;21768;48.562;13.414;2023-05-02T09:20:13;97651.50;;;17.60;54.50
35649;BME280;21768;48.562;13.414;2023-05-02T09:22:40;97652.22;;;17.56;54.57
35649;BME280;21768;48.562;13.414;2023-05-02T09:25:34;97656.75;;;17.63;54.35
35649;BME280;21768;48.562;13.414;2023-05-02T09:28:00;97658.66;;;17.48;53.15
35649;BME280;21768;48.562;13.414;2023-05-02T09:30:27;97663.28;;;17.37;54.68
35649;BME280;21768;48.562;13.414;2023-05-02T09:32:52;97663.63;;;17.45;54.04
35649;BME280;21768;48.562;13.414;2023-05-02T09:35:20;97670.75;;;17.52;54.68
35649;BME280;21768;48.562;13.414;2023-05-02T09:37:58;97669.13;;;17.54;53.81
35649;BME280;21768;48.562;13.414;2023-05-02T09:40:24;97664.16;;;17.57;54.92
35649;BME280;21768;48.562;13.414;2023-05-02T09:42:51;97669.28;;;17.58;54.42
35649;BME280;21768;48.562;13.414;2023-05-02T09:45:23;97668.19;;;17.52;54.71
35649;BME280;21768;48.562;13.414;2023-05-02T09:47:50;97673.44;;;17.55;53.87
35649;BME280;21768;48.562;13.414;2023-05-02T09:53:02;97681.31;;;17.61;54.67
35649;BME280;21768;48.562;13.414;2023-05-02T09:55:28;97679.50;;;17.58;54.42
35649;BME280;21768;48.562;13.414;2023-05-02T09:57:54;97678.25;;;17.49;54.08
35649;BME280;21768;48.562;13.414;2023-05-02T10:00:19;97677.06;;;17.41;54.79
35649;BME280;21768;48.562;13.414;2023-05-02T10:02:47;97680.94;;;17.52;55.31
35649;BME280;21768;48.562;13.414;2023-05-02T10:05:14;97680.56;;;17.63;55.10
35649;BME280;21768;48.562;13.414;2023-05-02T10:07:42;97677.44;;;17.69;55.26
35649;BME280;21768;48.562;13.414;2023-05-02T10:10:13;97681.81;;;17.72;55.62
35649;BME280;21768;48.562;13.414;2023-05-02T10:12:41;97668.50;;;17.79;54.82
35649;BME280;21768;48.562;13.414;2023-05-02T10:15:09;97668.56;;;17.80;54.88
35649;BME280;21768;48.562;13.414;2023-05-02T10:17:44;97676.44;;;17.86;53.87
35649;BME280;21768;48.562;13.414;2023-05-02T10:20:13;97670.66;;;17.90;54.22
35649;BME280;21768;48.562;13.414;2023-05-02T10:22:42;97671.59;;;17.92;53.61
35649;BME280;21768;48.562;13.414;2023-05-02T10:25:07;97671.53;;;17.91;55.08
35649;BME280;21768;48.562;13.414;2023-05-02T10:27:33;97675.91;;;17.93;53.80
35649;BME280;21768;48.562;13.414;2023-05-02T10:29:59;97677.66;;;17.94;53.11
35649;BME280;21768;48.562;13.414;2023-05-02T10:32:28;97672.91;;;18.04;53.92
35649;BME280;21768;48.562;13.414;2023-05-02T10:34:56;97674.88;;;18.11;52.97
35649;BME280;21768;48.562;13.414;2023-05-02T10:37:23;97671.19;;;18.02;53.59
35649;BME280;21768;48.562;13.414;2023-05-02T10:39:50;97667.56;;;17.97;53.96
35649;BME280;21768;48.562;13.414;2023-05-02T10:42:18;97665.25;;;18.04;52.86
35649;BME280;21768;48.562;13.414;2023-05-02T10:44:44;97668.91;;;18.10;52.47
35649;BME280;21768;48.562;13.414;2023-05-02T10:49:51;97668.91;;;18.31;53.16
35649;BME280;21768;48.562;13.414;2023-05-02T10:52:31;97671.56;;;18.34;52.18
35649;BME280;21768;48.562;13.414;2023-05-02T10:55:19;97672.72;;;18.42;53.22
35649;BME280;21768;48.562;13.414;2023-05-02T11:00:29;97677.25;;;18.27;51.81
35649;BME280;21768;48.562;13.414;2023-05-02T11:02:56;97670.41;;;18.26;53.45
35649;BME280;21768;48.562;13.414;2023-05-02T11:05:23;97680.22;;;18.38;52.46
35649;BME280;21768;48.562;13.414;2023-05-02T11:07:48;97674.72;;;18.49;52.78
35649;BME280;21768;48.562;13.414;2023-05-02T11:15:08;97685.16;;;18.76;53.14
35649;BME280;21768;48.562;13.414;2023-05-02T11:18:02;97677.09;;;18.89;52.88
35649;BME280;21768;48.562;13.414;2023-05-02T11:20:31;97678.03;;;18.91;51.79
35649;BME280;21768;48.562;13.414;2023-05-02T11:22:59;97676.13;;;18.86;51.92
35649;BME280;21768;48.562;13.414;2023-05-02T11:31:03;97684.03;;;18.92;52.19
35649;BME280;21768;48.562;13.414;2023-05-02T11:33:28;97679.84;;;18.94;51.17
35649;BME280;21768;48.562;13.414;2023-05-02T11:35:54;97677.84;;;18.87;52.13
35649;BME280;21768;48.562;13.414;2023-05-02T11:38:24;97684.84;;;18.91;51.35
35649;BME280;21768;48.562;13.414;2023-05-02T11:40:57;97683.31;;;18.96;51.95
35649;BME280;21768;48.562;13.414;2023-05-02T11:43:27;97684.19;;;18.96;51.79
35649;BME280;21768;48.562;13.414;2023-05-02T11:45:54;97690.88;;;18.93;51.11
35649;BME280;21768;48.562;13.414;2023-05-02T11:48:21;97685.03;;;18.73;50.98
35649;BME280;21768;48.562;13.414;2023-05-02T11:50:50;97682.41;;;18.72;51.29
35649;BME280;21768;48.562;13.414;2023-05-02T11:53:21;97689.03;;;18.66;51.36
35649;BME280;21768;48.562;13.414;2023-05-02T11:55:49;97692.28;;;18.62;51.91
35649;BME280;21768;48.562;13.414;2023-05-02T11:58:16;97683.38;;;18.53;52.08
35649;BME280;21768;48.562;13.414;2023-05-02T12:00:43;97685.53;;;18.64;52.00
35649;BME280;21768;48.562;13.414;2023-05-02T12:03:27;97692.16;;;18.82;52.01
35649;BME280;21768;48.562;13.414;2023-05-02T12:05:53;97684.66;;;18.86;51.82
35649;BME280;21768;48.562;13.414;2023-05-02T12:08:20;97686.47;;;18.89;51.83
35649;BME280;21768;48.562;13.414;2023-05-02T12:10:47;97683.91;;;18.89;51.89
35649;BME280;21768;48.562;13.414;2023-05-02T12:13:13;97686.59;;;18.92;52.25
35649;BME280;21768;48.562;13.414;2023-05-02T12:15:38;97679.50;;;18.85;51.29
35649;BME280;21768;48.562;13.414;2023-05-02T12:18:05;97692.06;;;18.79;51.61
35649;BME280;21768;48.562;13.414;2023-05-02T12:20:31;97692.97;;;18.81;51.45
35649;BME280;21768;48.562;13.414;2023-05-02T12:22:56;97688.97;;;18.87;51.67
35649;BME280;21768;48.562;13.414;2023-05-02T12:25:22;97693.09;;;18.84;51.01
35649;BME280;21768;48.562;13.414;2023-05-02T12:28:00;97692.97;;;18.81;51.18
35649;BME280;21768;48.562;13.414;2023-05-02T12:30:30;97695.94;;;18.91;50.91
35649;BME280;21768;48.562;13.414;2023-05-02T12:32:57;97697.16;;;19.01;50.78
35649;BME280;21768;48.562;13.414;2023-05-02T12:35:29;97695.72;;;19.09;51.00
35649;BME280;21768;48.562;13.414;2023-05-02T12:38:16;97692.25;;;19.07;51.55
35649;BME280;21768;48.562;13.414;2023-05-02T12:40:47;97696.78;;;19.14;51.44
35649;BME280;21768;48.562;13.414;2023-05-02T12:43:13;97693.41;;;19.15;50.47
35649;BME280;21768;48.562;13.414;2023-05-02T12:45:38;97696.47;;;19.07;50.18
35649;BME280;21768;48.562;13.414;2023-05-02T12:48:23;97699.53;;;18.96;50.35
35649;BME280;21768;48.562;13.414;2023-05-02T12:50:49;97698.72;;;18.97;50.32
35649;BME280;21768;48.562;13.414;2023-05-02T12:53:15;97696.81;;;18.92;50.60
35649;BME280;21768;48.562;13.414;2023-05-02T12:55:40;97691.94;;;18.98;50.34
35649;BME280;21768;48.562;13.414;2023-05-02T12:58:07;97691.00;;;18.96;50.75
35649;BME280;21768;48.562;13.414;2023-05-02T13:00:36;97691.88;;;18.96;51.71
35649;BME280;21768;48.562;13.414;2023-05-02T13:03:02;97705.66;;;19.00;50.34
35649;BME280;21768;48.562;13.414;2023-05-02T13:05:27;97701.00;;;18.90;49.95
35649;BME280;21768;48.562;13.414;2023-05-02T13:07:53;97695.66;;;18.84;50.40
35649;BME280;21768;48.562;13.414;2023-05-02T13:10:21;97701.56;;;18.83;50.26
35649;BME280;21768;48.562;13.414;2023-05-02T13:12:47;97692.97;;;18.81;51.12
35649;BME280;21768;48.562;13.414;2023-05-02T13:15:13;97692.66;;;18.72;50.99
35649;BME280;21768;48.562;13.414;2023-05-02T13:17:39;97695.06;;;18.68;51.16
35649;BME280;21768;48.562;13.414;2023-05-02T13:20:05;97697.00;;;18.74;51.23
35649;BME280;21768;48.562;13.414;2023-05-02T13:22:32;97694.72;;;18.82;51.58
35649;BME280;21768;48.562;13.414;2023-05-02T13:24:57;97701.69;;;18.86;51.25
35649;BME280;21768;48.562;13.414;2023-05-02T13:27:23;97698.09;;;18.81;50.90
35649;BME280;21768;48.562;13.414;2023-05-02T13:29:49;97701.38;;;18.77;51.34